Main page
METAR-TAF:

METAR-TAF

Airports :

Ouagadougou Airport

Ouagadougou, Burkina Faso

latitude: 12-21N, longitude: 001-31W, elevation: 316 m

Current weather observation

The report was made 27 minutes ago, at 05:00 UTC
Wind 4 kt from the Northeast
Temperature 20°C
Humidity 21%
Pressure 1014 hPa
Visibility 10 km or more
no clouds below 1500 m and no cumulonimbus

METAR: DFFD 270500Z 05004KT CAVOK 20/M03 Q1014 NOSIG

Time: 05:27 (05:27 UTC)

Forecast

The report was made 6 hours and 27 minutes ago, at 23:00 UTC
Forecast valid from 27 at 00 UTC to 28 at 06 UTC
Wind 10 kt from the East
Visibility: 6000 m
Temporary
from 27 at 06 UTC to 27 at 10 UTC
Visibility: 2500 m
widespread dust
Temporary
from 27 at 18 UTC to 27 at 21 UTC
Visibility: 4000 m
widespread dust

TAF: DFFD 262300Z 2700/2806 08010KT 6000 NSC TEMPO 2706/2710 2500 DU TEMPO 2718/2721 4000 DU

Weather observations and forecasts of more than 4000 airports (METAR and TAF reports).

The available stations are represented by yellow and red dots on the map.

Hover mouse over dot to see the name of the station.

Then click to see weather observations and forecasts.

To change the map : click on the green buttons with a black cross to zoom in, on the green button with a dash to zoom out, or on the green arrows for adjacent maps.


METAR-TAF: